^^
Saratoga-Weather Station Historical Data
Daily Summary for September 18, 2021 Units:  Both    English   Metric
Daily Weekly Monthly Yearly Custom
  High: Low: Average:
Temperature: 58.6 °F /  14.8 °C 38.8 °F /  3.8 °C 46.4 °F /  8 °C
Dew Point: 51.8 °F /  11 °C 37.8 °F /  3.2 °C 44.1 °F /  6.7 °C
Humidity: 98% 76% 92%
Wind Speed: 4mph /  6.4km/h - 0.3mph /  0.5km/h
Wind Gust: 7mph /  11.3km/h - -
Wind- - East
Pressure: 30.3 in /  1024.7 hPa 30.2 in /  1021.7 hPa -
Precipitation: 0 in /  0.0 mm    
Historical Graphs
 
 
Tabular Data for September 18, 2021
Time Temperature Dew Point Pressure Wind Wind Speed Wind Gust Humidity Rainfall Rate (Hourly) solar
00:00 43 °F /  6.1 °C 41.7 °F /  5.4 °C 30.2in /  1021.7hPa Calm     95% 0in /  0.0mm 0 W/m2
00:05 43 °F /  6.1 °C 41.7 °F /  5.4 °C 30.2in /  1021.7hPa Calm     95% 0in /  0.0mm 0 W/m2
00:10 43 °F /  6.1 °C 41.7 °F /  5.4 °C 30.2in /  1021.7hPa Calm     95% 0in /  0.0mm 0 W/m2
00:15 42.8 °F /  6 °C 41.5 °F /  5.3 °C 30.2in /  1022.0hPa Calm     95% 0in /  0.0mm 0 W/m2
00:20 42.8 °F /  6 °C 41.5 °F /  5.3 °C 30.2in /  1022.4hPa Calm     95% 0in /  0.0mm 0 W/m2
00:25 42.6 °F /  5.9 °C 41.4 °F /  5.2 °C 30.2in /  1022.0hPa Calm     95% 0in /  0.0mm 0 W/m2
00:30 42.6 °F /  5.9 °C 41.4 °F /  5.2 °C 30.2in /  1022.4hPa SW 0.9mph /  1.4km/h 1mph /  1.6km/h 95% 0in /  0.0mm 0 W/m2
00:35 42.6 °F /  5.9 °C 41.4 °F /  5.2 °C 30.2in /  1022.4hPa Calm   1mph /  1.6km/h 95% 0in /  0.0mm 0 W/m2
00:40 42.4 °F /  5.8 °C 41.2 °F /  5.1 °C 30.2in /  1022.4hPa Calm   1mph /  1.6km/h 95% 0in /  0.0mm 0 W/m2
00:45 42.4 °F /  5.8 °C 41.2 °F /  5.1 °C 30.2in /  1022.4hPa Calm     95% 0in /  0.0mm 0 W/m2
00:50 42.3 °F /  5.7 °C 41 °F /  5 °C 30.2in /  1022.4hPa Calm     95% 0in /  0.0mm 0 W/m2
00:55 42.3 °F /  5.7 °C 41 °F /  5 °C 30.2in /  1022.4hPa Calm     95% 0in /  0.0mm 0 W/m2
01:00 42.1 °F /  5.6 °C 40.8 °F /  4.9 °C 30.2in /  1022.4hPa Calm     95% 0in /  0.0mm 0 W/m2
01:05 42.1 °F /  5.6 °C 40.8 °F /  4.9 °C 30.2in /  1022.4hPa Calm     95% 0in /  0.0mm 0 W/m2
01:11 42.3 °F /  5.7 °C 41 °F /  5 °C 30.2in /  1022.4hPa Calm     95% 0in /  0.0mm 0 W/m2
01:16 42.1 °F /  5.6 °C 40.8 °F /  4.9 °C 30.2in /  1022.4hPa Calm     95% 0in /  0.0mm 0 W/m2
01:21 42.1 °F /  5.6 °C 40.8 °F /  4.9 °C 30.2in /  1022.4hPa Calm     95% 0in /  0.0mm 0 W/m2
01:26 41.7 °F /  5.4 °C 40.5 °F /  4.7 °C 30.2in /  1022.4hPa Calm     95% 0in /  0.0mm 0 W/m2
01:31 41.5 °F /  5.3 °C 40.3 °F /  4.6 °C 30.2in /  1022.4hPa Calm     95% 0in /  0.0mm 0 W/m2
01:36 41.5 °F /  5.3 °C 40.3 °F /  4.6 °C 30.2in /  1022.4hPa Calm     95% 0in /  0.0mm 0 W/m2
01:41 41.4 °F /  5.2 °C 40.1 °F /  4.5 °C 30.2in /  1022.4hPa Calm     95% 0in /  0.0mm 0 W/m2
01:46 41.2 °F /  5.1 °C 39.9 °F /  4.4 °C 30.2in /  1022.4hPa Calm     95% 0in /  0.0mm 0 W/m2
01:51 41 °F /  5 °C 39.7 °F /  4.3 °C 30.2in /  1022.4hPa Calm     95% 0in /  0.0mm 0 W/m2
01:56 40.8 °F /  4.9 °C 39.6 °F /  4.2 °C 30.2in /  1022.4hPa Calm     95% 0in /  0.0mm 0 W/m2
02:01 40.8 °F /  4.9 °C 39.6 °F /  4.2 °C 30.2in /  1022.4hPa Calm     95% 0in /  0.0mm 0 W/m2
02:06 40.8 °F /  4.9 °C 39.6 °F /  4.2 °C 30.2in /  1022.4hPa Calm     95% 0in /  0.0mm 0 W/m2
02:11 40.6 °F /  4.8 °C 39.4 °F /  4.1 °C 30.2in /  1022.4hPa Calm     95% 0in /  0.0mm 0 W/m2
02:16 40.6 °F /  4.8 °C 39.4 °F /  4.1 °C 30.2in /  1022.4hPa Calm     95% 0in /  0.0mm 0 W/m2
02:21 40.6 °F /  4.8 °C 39.4 °F /  4.1 °C 30.2in /  1022.4hPa Calm     95% 0in /  0.0mm 0 W/m2
02:26 40.5 °F /  4.7 °C 39.2 °F /  4 °C 30.2in /  1022.4hPa Calm     95% 0in /  0.0mm 0 W/m2
02:31 40.3 °F /  4.6 °C 39 °F /  3.9 °C 30.2in /  1022.4hPa Calm     95% 0in /  0.0mm 0 W/m2
02:36 40.1 °F /  4.5 °C 38.8 °F /  3.8 °C 30.2in /  1022.4hPa Calm     95% 0in /  0.0mm 0 W/m2
02:41 39.9 °F /  4.4 °C 38.7 °F /  3.7 °C 30.2in /  1022.4hPa Calm     95% 0in /  0.0mm 0 W/m2
02:46 39.9 °F /  4.4 °C 38.8 °F /  3.8 °C 30.2in /  1022.4hPa Calm     96% 0in /  0.0mm 0 W/m2
02:51 39.9 °F /  4.4 °C 38.8 °F /  3.8 °C 30.2in /  1022.7hPa Calm     96% 0in /  0.0mm 0 W/m2
02:56 39.7 °F /  4.3 °C 38.5 °F /  3.6 °C 30.2in /  1022.4hPa Calm     95% 0in /  0.0mm 0 W/m2
03:01 39.7 °F /  4.3 °C 38.5 °F /  3.6 °C 30.2in /  1022.7hPa Calm     95% 0in /  0.0mm 0 W/m2
03:06 39.7 °F /  4.3 °C 38.7 °F /  3.7 °C 30.2in /  1022.7hPa Calm     96% 0in /  0.0mm 0 W/m2
03:11 39.6 °F /  4.2 °C 38.5 °F /  3.6 °C 30.2in /  1022.4hPa Calm     96% 0in /  0.0mm 0 W/m2
03:16 39.6 °F /  4.2 °C 38.5 °F /  3.6 °C 30.2in /  1022.7hPa Calm     96% 0in /  0.0mm 0 W/m2
03:21 39.6 °F /  4.2 °C 38.5 °F /  3.6 °C 30.2in /  1022.7hPa Calm     96% 0in /  0.0mm 0 W/m2
03:26 39.6 °F /  4.2 °C 38.5 °F /  3.6 °C 30.2in /  1022.7hPa Calm     96% 0in /  0.0mm 0 W/m2
03:31 39.6 °F /  4.2 °C 38.5 °F /  3.6 °C 30.2in /  1022.7hPa Calm     96% 0in /  0.0mm 0 W/m2
03:36 39.6 °F /  4.2 °C 38.5 °F /  3.6 °C 30.2in /  1022.7hPa Calm     96% 0in /  0.0mm 0 W/m2
03:41 39.7 °F /  4.3 °C 38.7 °F /  3.7 °C 30.2in /  1022.7hPa Calm     96% 0in /  0.0mm 0 W/m2
03:46 39.9 °F /  4.4 °C 38.8 °F /  3.8 °C 30.2in /  1022.7hPa Calm     96% 0in /  0.0mm 0 W/m2
03:51 39.9 °F /  4.4 °C 38.8 °F /  3.8 °C 30.2in /  1022.7hPa Calm     96% 0in /  0.0mm 0 W/m2
03:56 39.9 °F /  4.4 °C 38.8 °F /  3.8 °C 30.2in /  1022.7hPa Calm     96% 0in /  0.0mm 0 W/m2
04:01 39.9 °F /  4.4 °C 38.8 °F /  3.8 °C 30.2in /  1022.4hPa Calm     96% 0in /  0.0mm 0 W/m2
04:06 40.1 °F /  4.5 °C 39 °F /  3.9 °C 30.2in /  1022.4hPa Calm     96% 0in /  0.0mm 0 W/m2
04:11 40.3 °F /  4.6 °C 39.2 °F /  4 °C 30.2in /  1022.7hPa Calm     96% 0in /  0.0mm 0 W/m2
04:16 40.5 °F /  4.7 °C 39.4 °F /  4.1 °C 30.2in /  1022.4hPa Calm     96% 0in /  0.0mm 0 W/m2
04:21 40.5 °F /  4.7 °C 39.4 °F /  4.1 °C 30.2in /  1022.7hPa Calm     96% 0in /  0.0mm 0 W/m2
04:26 40.6 °F /  4.8 °C 39.6 °F /  4.2 °C 30.2in /  1022.7hPa Calm     96% 0in /  0.0mm 0 W/m2
04:31 40.6 °F /  4.8 °C 39.6 °F /  4.2 °C 30.2in /  1022.7hPa Calm     96% 0in /  0.0mm 0 W/m2
04:36 40.6 °F /  4.8 °C 39.6 °F /  4.2 °C 30.2in /  1022.7hPa Calm     96% 0in /  0.0mm 0 W/m2
04:41 40.8 °F /  4.9 °C 39.7 °F /  4.3 °C 30.2in /  1022.7hPa Calm   1mph /  1.6km/h 96% 0in /  0.0mm 0 W/m2
04:46 41 °F /  5 °C 39.9 °F /  4.4 °C 30.2in /  1022.7hPa Calm     96% 0in /  0.0mm 0 W/m2
04:51 41 °F /  5 °C 39.9 °F /  4.4 °C 30.2in /  1022.7hPa Calm   1mph /  1.6km/h 96% 0in /  0.0mm 0 W/m2
04:56 41.2 °F /  5.1 °C 40.1 °F /  4.5 °C 30.2in /  1022.7hPa Calm     96% 0in /  0.0mm 0 W/m2
05:01 41.2 °F /  5.1 °C 40.1 °F /  4.5 °C 30.2in /  1022.7hPa Calm     96% 0in /  0.0mm 0 W/m2
05:06 41.2 °F /  5.1 °C 40.1 °F /  4.5 °C 30.2in /  1022.7hPa Calm   1mph /  1.6km/h 96% 0in /  0.0mm 0 W/m2
05:11 41 °F /  5 °C 39.9 °F /  4.4 °C 30.2in /  1022.7hPa Calm     96% 0in /  0.0mm 0 W/m2
05:16 40.8 °F /  4.9 °C 39.7 °F /  4.3 °C 30.2in /  1022.7hPa Calm     96% 0in /  0.0mm 0 W/m2
05:21 40.6 °F /  4.8 °C 39.6 °F /  4.2 °C 30.2in /  1022.7hPa Calm     96% 0in /  0.0mm 0 W/m2
05:26 40.6 °F /  4.8 °C 39.6 °F /  4.2 °C 30.2in /  1022.7hPa Calm     96% 0in /  0.0mm 0 W/m2
05:31 40.6 °F /  4.8 °C 39.6 °F /  4.2 °C 30.2in /  1022.7hPa Calm     96% 0in /  0.0mm 0 W/m2
05:36 40.5 °F /  4.7 °C 39.4 °F /  4.1 °C 30.2in /  1022.7hPa Calm     96% 0in /  0.0mm 0 W/m2
05:41 40.5 °F /  4.7 °C 39.4 °F /  4.1 °C 30.2in /  1022.7hPa Calm     96% 0in /  0.0mm 0 W/m2
05:46 40.5 °F /  4.7 °C 39.4 °F /  4.1 °C 30.2in /  1022.7hPa Calm     96% 0in /  0.0mm 0 W/m2
05:51 40.5 °F /  4.7 °C 39.4 °F /  4.1 °C 30.2in /  1022.7hPa Calm     96% 0in /  0.0mm 0 W/m2
05:56 40.5 °F /  4.7 °C 39.4 °F /  4.1 °C 30.2in /  1022.7hPa Calm     96% 0in /  0.0mm 0 W/m2
06:01 40.5 °F /  4.7 °C 39.4 °F /  4.1 °C 30.2in /  1023.0hPa Calm     96% 0in /  0.0mm 0 W/m2
06:07 40.5 °F /  4.7 °C 39.4 °F /  4.1 °C 30.2in /  1023.0hPa Calm   1mph /  1.6km/h 96% 0in /  0.0mm 0 W/m2
06:12 40.6 °F /  4.8 °C 39.6 °F /  4.2 °C 30.2in /  1023.0hPa Calm     96% 0in /  0.0mm 0 W/m2
06:17 40.5 °F /  4.7 °C 39.4 °F /  4.1 °C 30.2in /  1023.0hPa Calm   2mph /  3.2km/h 96% 0in /  0.0mm 0 W/m2
06:22 40.3 °F /  4.6 °C 39.2 °F /  4 °C 30.2in /  1023.0hPa Calm     96% 0in /  0.0mm 0 W/m2
06:27 40.3 °F /  4.6 °C 39.2 °F /  4 °C 30.2in /  1023.0hPa Calm   2mph /  3.2km/h 96% 0in /  0.0mm 0 W/m2
06:32 40.3 °F /  4.6 °C 39.2 °F /  4 °C 30.2in /  1023.0hPa Calm     96% 0in /  0.0mm 0 W/m2
06:37 40.3 °F /  4.6 °C 39.2 °F /  4 °C 30.2in /  1023.0hPa Calm     96% 0in /  0.0mm 0 W/m2
06:42 40.1 °F /  4.5 °C 39 °F /  3.9 °C 30.2in /  1023.0hPa Calm     96% 0in /  0.0mm 0 W/m2
06:47 40.1 °F /  4.5 °C 39 °F /  3.9 °C 30.2in /  1023.4hPa Calm     96% 0in /  0.0mm 0 W/m2
06:52 39.9 °F /  4.4 °C 38.8 °F /  3.8 °C 30.2in /  1023.4hPa Calm     96% 0in /  0.0mm 0 W/m2
06:57 39.9 °F /  4.4 °C 38.8 °F /  3.8 °C 30.2in /  1023.4hPa Calm     96% 0in /  0.0mm 0 W/m2
07:02 39.7 °F /  4.3 °C 38.7 °F /  3.7 °C 30.2in /  1023.4hPa Calm     96% 0in /  0.0mm 0 W/m2
07:07 39.7 °F /  4.3 °C 38.7 °F /  3.7 °C 30.2in /  1023.0hPa Calm     96% 0in /  0.0mm 0 W/m2
07:12 39.6 °F /  4.2 °C 38.5 °F /  3.6 °C 30.2in /  1023.4hPa Calm     96% 0in /  0.0mm 0 W/m2
07:17 39.6 °F /  4.2 °C 38.5 °F /  3.6 °C 30.2in /  1023.4hPa Calm     96% 0in /  0.0mm 0 W/m2
07:22 39.4 °F /  4.1 °C 38.3 °F /  3.5 °C 30.2in /  1023.4hPa Calm     96% 0in /  0.0mm 0 W/m2
07:27 39.4 °F /  4.1 °C 38.3 °F /  3.5 °C 30.2in /  1023.4hPa Calm     96% 0in /  0.0mm 0 W/m2
07:32 39.4 °F /  4.1 °C 38.3 °F /  3.5 °C 30.2in /  1023.4hPa NNE 0.9mph /  1.4km/h 2mph /  3.2km/h 96% 0in /  0.0mm 0 W/m2
07:37 39.2 °F /  4 °C 38.1 °F /  3.4 °C 30.2in /  1023.4hPa NNE 0.9mph /  1.4km/h 1mph /  1.6km/h 96% 0in /  0.0mm 0 W/m2
07:42 39 °F /  3.9 °C 37.9 °F /  3.3 °C 30.2in /  1023.4hPa Calm   2mph /  3.2km/h 96% 0in /  0.0mm 0 W/m2
07:47 39 °F /  3.9 °C 37.9 °F /  3.3 °C 30.2in /  1023.4hPa Calm   1mph /  1.6km/h 96% 0in /  0.0mm 0 W/m2
07:52 38.8 °F /  3.8 °C 37.8 °F /  3.2 °C 30.2in /  1023.4hPa Calm   1mph /  1.6km/h 96% 0in /  0.0mm 0 W/m2
07:57 38.8 °F /  3.8 °C 37.8 °F /  3.2 °C 30.2in /  1023.4hPa Calm     96% 0in /  0.0mm 0 W/m2
08:02 38.8 °F /  3.8 °C 37.8 °F /  3.2 °C 30.2in /  1023.4hPa Calm     96% 0in /  0.0mm 0 W/m2
08:07 38.8 °F /  3.8 °C 38.1 °F /  3.4 °C 30.2in /  1023.4hPa Calm     97% 0in /  0.0mm 0 W/m2
08:12 38.8 °F /  3.8 °C 38.1 °F /  3.4 °C 30.2in /  1023.4hPa Calm     97% 0in /  0.0mm 5 W/m2
08:17 38.8 °F /  3.8 °C 38.1 °F /  3.4 °C 30.2in /  1023.7hPa Calm     97% 0in /  0.0mm 7 W/m2
08:22 38.8 °F /  3.8 °C 38.1 °F /  3.4 °C 30.2in /  1023.7hPa Calm     97% 0in /  0.0mm 9 W/m2
08:27 38.8 °F /  3.8 °C 38.1 °F /  3.4 °C 30.2in /  1023.7hPa Calm     97% 0in /  0.0mm 11 W/m2
08:32 38.8 °F /  3.8 °C 38.1 °F /  3.4 °C 30.2in /  1023.7hPa Calm     97% 0in /  0.0mm 16 W/m2
08:37 38.8 °F /  3.8 °C 38.1 °F /  3.4 °C 30.2in /  1023.7hPa Calm     97% 0in /  0.0mm 21 W/m2
08:42 38.8 °F /  3.8 °C 38.1 °F /  3.4 °C 30.2in /  1023.7hPa ENE 0.9mph /  1.4km/h 1mph /  1.6km/h 97% 0in /  0.0mm 28 W/m2
08:47 38.8 °F /  3.8 °C 38.1 °F /  3.4 °C 30.2in /  1024.0hPa Calm     97% 0in /  0.0mm 30 W/m2
08:52 38.8 °F /  3.8 °C 38.1 °F /  3.4 °C 30.2in /  1024.0hPa Calm   1mph /  1.6km/h 97% 0in /  0.0mm 28 W/m2
08:57 38.8 °F /  3.8 °C 38.1 °F /  3.4 °C 30.2in /  1024.0hPa Calm     97% 0in /  0.0mm 37 W/m2
09:02 38.8 °F /  3.8 °C 38.1 °F /  3.4 °C 30.2in /  1024.0hPa Calm     97% 0in /  0.0mm 39 W/m2
09:07 38.8 °F /  3.8 °C 38.1 °F /  3.4 °C 30.2in /  1024.0hPa Calm   1mph /  1.6km/h 97% 0in /  0.0mm 40 W/m2
09:12 39 °F /  3.9 °C 38.3 °F /  3.5 °C 30.2in /  1024.0hPa Calm   2mph /  3.2km/h 97% 0in /  0.0mm 46 W/m2
09:17 39 °F /  3.9 °C 38.3 °F /  3.5 °C 30.2in /  1024.0hPa ENE 0.9mph /  1.4km/h 2mph /  3.2km/h 97% 0in /  0.0mm 40 W/m2
09:22 39.2 °F /  4 °C 38.5 °F /  3.6 °C 30.3in /  1024.4hPa Calm   2mph /  3.2km/h 97% 0in /  0.0mm 54 W/m2
09:27 39.2 °F /  4 °C 38.5 °F /  3.6 °C 30.3in /  1024.4hPa ESE 0.9mph /  1.4km/h 1mph /  1.6km/h 97% 0in /  0.0mm 58 W/m2
09:32 39.4 °F /  4.1 °C 38.7 °F /  3.7 °C 30.3in /  1024.4hPa Calm     97% 0in /  0.0mm 74 W/m2
09:37 39.4 °F /  4.1 °C 38.7 °F /  3.7 °C 30.3in /  1024.4hPa Calm   2mph /  3.2km/h 97% 0in /  0.0mm 67 W/m2
09:42 39.4 °F /  4.1 °C 38.7 °F /  3.7 °C 30.3in /  1024.4hPa Calm   1mph /  1.6km/h 97% 0in /  0.0mm 69 W/m2
09:47 39.6 °F /  4.2 °C 38.8 °F /  3.8 °C 30.3in /  1024.4hPa East 2mph /  3.2km/h 2mph /  3.2km/h 97% 0in /  0.0mm 74 W/m2
09:52 39.6 °F /  4.2 °C 38.8 °F /  3.8 °C 30.3in /  1024.4hPa Calm   2mph /  3.2km/h 97% 0in /  0.0mm 79 W/m2
09:57 39.7 °F /  4.3 °C 39 °F /  3.9 °C 30.3in /  1024.4hPa Calm   2mph /  3.2km/h 97% 0in /  0.0mm 79 W/m2
10:02 39.7 °F /  4.3 °C 39 °F /  3.9 °C 30.3in /  1024.4hPa Calm   1mph /  1.6km/h 97% 0in /  0.0mm 83 W/m2
10:07 39.7 °F /  4.3 °C 39 °F /  3.9 °C 30.3in /  1024.4hPa Calm   2mph /  3.2km/h 97% 0in /  0.0mm 74 W/m2
10:12 39.7 °F /  4.3 °C 39 °F /  3.9 °C 30.3in /  1024.7hPa East 0.9mph /  1.4km/h 1mph /  1.6km/h 97% 0in /  0.0mm 107 W/m2
10:17 39.7 °F /  4.3 °C 39 °F /  3.9 °C 30.3in /  1024.4hPa Calm     97% 0in /  0.0mm 91 W/m2
10:22 39.9 °F /  4.4 °C 39.2 °F /  4 °C 30.3in /  1024.4hPa East 0.9mph /  1.4km/h 1mph /  1.6km/h 97% 0in /  0.0mm 113 W/m2
10:27 40.3 °F /  4.6 °C 39.6 °F /  4.2 °C 30.3in /  1024.4hPa ENE 0.9mph /  1.4km/h 2mph /  3.2km/h 97% 0in /  0.0mm 114 W/m2
10:32 40.3 °F /  4.6 °C 39.6 °F /  4.2 °C 30.3in /  1024.4hPa Calm     97% 0in /  0.0mm 113 W/m2
10:37 40.5 °F /  4.7 °C 39.7 °F /  4.3 °C 30.3in /  1024.4hPa ENE 0.9mph /  1.4km/h 1mph /  1.6km/h 97% 0in /  0.0mm 113 W/m2
10:42 40.6 °F /  4.8 °C 39.9 °F /  4.4 °C 30.3in /  1024.4hPa Calm   1mph /  1.6km/h 97% 0in /  0.0mm 111 W/m2
10:47 40.8 °F /  4.9 °C 40.1 °F /  4.5 °C 30.3in /  1024.4hPa NE 0.9mph /  1.4km/h 2mph /  3.2km/h 97% 0in /  0.0mm 127 W/m2
10:52 41.2 °F /  5.1 °C 40.5 °F /  4.7 °C 30.3in /  1024.4hPa Calm     97% 0in /  0.0mm 134 W/m2
10:57 41.2 °F /  5.1 °C 40.5 °F /  4.7 °C 30.3in /  1024.4hPa NE 0.9mph /  1.4km/h 2mph /  3.2km/h 97% 0in /  0.0mm 137 W/m2
11:02 41.4 °F /  5.2 °C 40.6 °F /  4.8 °C 30.3in /  1024.4hPa Calm     97% 0in /  0.0mm 125 W/m2
11:07 41.5 °F /  5.3 °C 40.8 °F /  4.9 °C 30.3in /  1024.4hPa Calm   2mph /  3.2km/h 97% 0in /  0.0mm 160 W/m2
11:12 41.7 °F /  5.4 °C 41 °F /  5 °C 30.3in /  1024.4hPa Calm   1mph /  1.6km/h 97% 0in /  0.0mm 200 W/m2
11:17 42.1 °F /  5.6 °C 41.4 °F /  5.2 °C 30.3in /  1024.4hPa Calm     97% 0in /  0.0mm 193 W/m2
11:22 42.1 °F /  5.6 °C 41.4 °F /  5.2 °C 30.3in /  1024.4hPa ENE 0.9mph /  1.4km/h 2mph /  3.2km/h 97% 0in /  0.0mm 193 W/m2
11:27 42.3 °F /  5.7 °C 41.5 °F /  5.3 °C 30.3in /  1024.7hPa Calm   3mph /  4.8km/h 97% 0in /  0.0mm 239 W/m2
11:32 42.4 °F /  5.8 °C 41.7 °F /  5.4 °C 30.3in /  1024.7hPa Calm   1mph /  1.6km/h 97% 0in /  0.0mm 156 W/m2
11:37 42.6 °F /  5.9 °C 41.9 °F /  5.5 °C 30.3in /  1024.4hPa Calm   2mph /  3.2km/h 97% 0in /  0.0mm 387 W/m2
11:42 43.3 °F /  6.3 °C 42.6 °F /  5.9 °C 30.3in /  1024.7hPa NE 2mph /  3.2km/h 3mph /  4.8km/h 97% 0in /  0.0mm 431 W/m2
11:47 43.9 °F /  6.6 °C 43.2 °F /  6.2 °C 30.3in /  1024.4hPa NNE 0.9mph /  1.4km/h 3mph /  4.8km/h 97% 0in /  0.0mm 167 W/m2
11:52 44.1 °F /  6.7 °C 43.3 °F /  6.3 °C 30.3in /  1024.4hPa Calm   2mph /  3.2km/h 97% 0in /  0.0mm 98 W/m2
11:57 44.4 °F /  6.9 °C 43.7 °F /  6.5 °C 30.3in /  1024.7hPa SE 0.9mph /  1.4km/h 3mph /  4.8km/h 97% 0in /  0.0mm 111 W/m2
12:02 44.4 °F /  6.9 °C 43.7 °F /  6.5 °C 30.3in /  1024.4hPa ESE 0.9mph /  1.4km/h 3mph /  4.8km/h 97% 0in /  0.0mm 130 W/m2
12:07 44.8 °F /  7.1 °C 44.1 °F /  6.7 °C 30.3in /  1024.4hPa SE 2mph /  3.2km/h 3mph /  4.8km/h 97% 0in /  0.0mm 139 W/m2
12:12 45.3 °F /  7.4 °C 44.6 °F /  7 °C 30.3in /  1024.4hPa NE 4mph /  6.4km/h 5mph /  8km/h 97% 0in /  0.0mm 156 W/m2
12:17 45.7 °F /  7.6 °C 45.1 °F /  7.3 °C 30.2in /  1024.0hPa ENE 2.9mph /  4.7km/h 4mph /  6.4km/h 98% 0in /  0.0mm 172 W/m2
12:22 46 °F /  7.8 °C 45.3 °F /  7.4 °C 30.3in /  1024.4hPa East 2mph /  3.2km/h 5mph /  8km/h 97% 0in /  0.0mm 192 W/m2
12:27 46.4 °F /  8 °C 45.9 °F /  7.7 °C 30.3in /  1024.4hPa Calm   2mph /  3.2km/h 98% 0in /  0.0mm 220 W/m2
12:32 46.8 °F /  8.2 °C 46.2 °F /  7.9 °C 30.3in /  1024.4hPa East 0.9mph /  1.4km/h 4mph /  6.4km/h 98% 0in /  0.0mm 257 W/m2
12:37 47.3 °F /  8.5 °C 46.6 °F /  8.1 °C 30.3in /  1024.4hPa ENE 2mph /  3.2km/h 2mph /  3.2km/h 97% 0in /  0.0mm 214 W/m2
12:42 47.8 °F /  8.8 °C 46.9 °F /  8.3 °C 30.2in /  1024.0hPa ENE 2mph /  3.2km/h 4mph /  6.4km/h 97% 0in /  0.0mm 204 W/m2
12:47 48.4 °F /  9.1 °C 47.5 °F /  8.6 °C 30.2in /  1024.0hPa Calm   2mph /  3.2km/h 97% 0in /  0.0mm 209 W/m2
12:52 48.7 °F /  9.3 °C 47.7 °F /  8.7 °C 30.2in /  1024.0hPa East 0.9mph /  1.4km/h 4mph /  6.4km/h 96% 0in /  0.0mm 239 W/m2
12:57 49.3 °F /  9.6 °C 48.2 °F /  9 °C 30.2in /  1024.0hPa ENE 0.9mph /  1.4km/h 4mph /  6.4km/h 96% 0in /  0.0mm 257 W/m2
13:02 49.8 °F /  9.9 °C 48.2 °F /  9 °C 30.2in /  1024.0hPa ENE 2mph /  3.2km/h 3mph /  4.8km/h 94% 0in /  0.0mm 251 W/m2
13:07 50.2 °F /  10.1 °C 48 °F /  8.9 °C 30.2in /  1024.0hPa ESE 2.9mph /  4.7km/h 3mph /  4.8km/h 92% 0in /  0.0mm 153 W/m2
13:12 50.5 °F /  10.3 °C 47.7 °F /  8.7 °C 30.2in /  1024.0hPa East 2mph /  3.2km/h 3mph /  4.8km/h 90% 0in /  0.0mm 146 W/m2
13:17 50.9 °F /  10.5 °C 47.5 °F /  8.6 °C 30.2in /  1023.7hPa East 2mph /  3.2km/h 3mph /  4.8km/h 88% 0in /  0.0mm 139 W/m2
13:22 51.3 °F /  10.7 °C 47.5 °F /  8.6 °C 30.2in /  1023.7hPa NE 2mph /  3.2km/h 3mph /  4.8km/h 87% 0in /  0.0mm 149 W/m2
13:27 51.6 °F /  10.9 °C 47.5 °F /  8.6 °C 30.2in /  1023.4hPa East 0.9mph /  1.4km/h 3mph /  4.8km/h 86% 0in /  0.0mm 176 W/m2
13:32 52.2 °F /  11.2 °C 47.8 °F /  8.8 °C 30.2in /  1023.7hPa ESE 2mph /  3.2km/h 3mph /  4.8km/h 85% 0in /  0.0mm 179 W/m2
13:37 52.5 °F /  11.4 °C 47.8 °F /  8.8 °C 30.2in /  1023.7hPa East 0.9mph /  1.4km/h 3mph /  4.8km/h 84% 0in /  0.0mm 178 W/m2
13:42 52.9 °F /  11.6 °C 48.2 °F /  9 °C 30.2in /  1023.4hPa ESE 2mph /  3.2km/h 3mph /  4.8km/h 84% 0in /  0.0mm 155 W/m2
13:47 53.1 °F /  11.7 °C 48 °F /  8.9 °C 30.2in /  1023.4hPa ENE 2mph /  3.2km/h 3mph /  4.8km/h 83% 0in /  0.0mm 132 W/m2
13:52 53.2 °F /  11.8 °C 48.2 °F /  9 °C 30.2in /  1023.4hPa Calm   3mph /  4.8km/h 83% 0in /  0.0mm 113 W/m2
13:57 53.6 °F /  12 °C 48.2 °F /  9 °C 30.2in /  1023.4hPa Calm   3mph /  4.8km/h 82% 0in /  0.0mm 116 W/m2
14:02 54 °F /  12.2 °C 48.6 °F /  9.2 °C 30.2in /  1023.4hPa ESE 2.9mph /  4.7km/h 6mph /  9.7km/h 82% 0in /  0.0mm 127 W/m2
14:07 54.3 °F /  12.4 °C 48.9 °F /  9.4 °C 30.2in /  1023.4hPa East 2mph /  3.2km/h 6mph /  9.7km/h 82% 0in /  0.0mm 141 W/m2
14:12 54.5 °F /  12.5 °C 48.7 °F /  9.3 °C 30.2in /  1023.4hPa NNE 2mph /  3.2km/h 4mph /  6.4km/h 81% 0in /  0.0mm 121 W/m2
14:17 54.7 °F /  12.6 °C 48.9 °F /  9.4 °C 30.2in /  1023.4hPa East 0.9mph /  1.4km/h 6mph /  9.7km/h 81% 0in /  0.0mm 109 W/m2
14:22 54.9 °F /  12.7 °C 48.7 °F /  9.3 °C 30.2in /  1023.0hPa ESE 2mph /  3.2km/h 7mph /  11.3km/h 80% 0in /  0.0mm 95 W/m2
14:27 55.2 °F /  12.9 °C 49.1 °F /  9.5 °C 30.2in /  1023.0hPa SE 2mph /  3.2km/h 2mph /  3.2km/h 80% 0in /  0.0mm 74 W/m2
14:32 55.2 °F /  12.9 °C 49.1 °F /  9.5 °C 30.2in /  1023.0hPa ESE 2mph /  3.2km/h 7mph /  11.3km/h 80% 0in /  0.0mm 63 W/m2
14:37 55.6 °F /  13.1 °C 49.5 °F /  9.7 °C 30.2in /  1023.0hPa East 0.9mph /  1.4km/h 2mph /  3.2km/h 80% 0in /  0.0mm 65 W/m2
14:43 55.6 °F /  13.1 °C 49.5 °F /  9.7 °C 30.2in /  1022.7hPa North 0.9mph /  1.4km/h 2mph /  3.2km/h 80% 0in /  0.0mm 70 W/m2
14:48 55.8 °F /  13.2 °C 49.6 °F /  9.8 °C 30.2in /  1022.7hPa East 2.9mph /  4.7km/h 4mph /  6.4km/h 80% 0in /  0.0mm 69 W/m2
14:53 55.9 °F /  13.3 °C 49.8 °F /  9.9 °C 30.2in /  1022.4hPa West 2mph /  3.2km/h 2mph /  3.2km/h 80% 0in /  0.0mm 79 W/m2
14:58 55.9 °F /  13.3 °C 49.8 °F /  9.9 °C 30.2in /  1022.4hPa Calm   2mph /  3.2km/h 80% 0in /  0.0mm 98 W/m2
15:03 56.1 °F /  13.4 °C 50 °F /  10 °C 30.2in /  1022.4hPa Calm   2mph /  3.2km/h 80% 0in /  0.0mm 102 W/m2
15:08 56.5 °F /  13.6 °C 50.4 °F /  10.2 °C 30.2in /  1022.7hPa Calm   3mph /  4.8km/h 80% 0in /  0.0mm 118 W/m2
15:13 56.7 °F /  13.7 °C 50.5 °F /  10.3 °C 30.2in /  1022.7hPa ENE 0.9mph /  1.4km/h 1mph /  1.6km/h 80% 0in /  0.0mm 134 W/m2
15:18 56.7 °F /  13.7 °C 50.2 °F /  10.1 °C 30.2in /  1022.4hPa Calm   1mph /  1.6km/h 79% 0in /  0.0mm 153 W/m2
15:23 56.8 °F /  13.8 °C 50.7 °F /  10.4 °C 30.2in /  1022.4hPa South 0.9mph /  1.4km/h 3mph /  4.8km/h 80% 0in /  0.0mm 183 W/m2
15:28 57 °F /  13.9 °C 50.9 °F /  10.5 °C 30.2in /  1022.4hPa Calm     80% 0in /  0.0mm 193 W/m2
15:33 57.2 °F /  14 °C 51.1 °F /  10.6 °C 30.2in /  1022.7hPa South 0.9mph /  1.4km/h 1mph /  1.6km/h 80% 0in /  0.0mm 188 W/m2
15:38 57.6 °F /  14.2 °C 51.1 °F /  10.6 °C 30.2in /  1022.7hPa Calm   1mph /  1.6km/h 79% 0in /  0.0mm 185 W/m2
15:43 57.7 °F /  14.3 °C 50.5 °F /  10.3 °C 30.2in /  1022.7hPa Calm   2mph /  3.2km/h 77% 0in /  0.0mm 188 W/m2
15:48 57.9 °F /  14.4 °C 50.7 °F /  10.4 °C 30.2in /  1022.7hPa Calm   1mph /  1.6km/h 77% 0in /  0.0mm 188 W/m2
15:53 58.3 °F /  14.6 °C 51.4 °F /  10.8 °C 30.2in /  1022.4hPa Calm   2mph /  3.2km/h 78% 0in /  0.0mm 176 W/m2
15:58 58.5 °F /  14.7 °C 50.9 °F /  10.5 °C 30.2in /  1022.4hPa East 2.9mph /  4.7km/h 6mph /  9.7km/h 76% 0in /  0.0mm 163 W/m2
16:03 58.5 °F /  14.7 °C 51.6 °F /  10.9 °C 30.2in /  1022.4hPa ENE 2mph /  3.2km/h 3mph /  4.8km/h 78% 0in /  0.0mm 158 W/m2
16:08 58.6 °F /  14.8 °C 51.8 °F /  11 °C 30.2in /  1022.0hPa SSE 0.9mph /  1.4km/h 2mph /  3.2km/h 78% 0in /  0.0mm 153 W/m2
16:13 58.6 °F /  14.8 °C 51.1 °F /  10.6 °C 30.2in /  1022.4hPa SE 0.9mph /  1.4km/h 4mph /  6.4km/h 76% 0in /  0.0mm 151 W/m2
16:18 58.5 °F /  14.7 °C 50.9 °F /  10.5 °C 30.2in /  1022.4hPa SSW 0.9mph /  1.4km/h 2mph /  3.2km/h 76% 0in /  0.0mm 160 W/m2
16:23 58.6 °F /  14.8 °C 51.4 °F /  10.8 °C 30.2in /  1022.4hPa Calm   4mph /  6.4km/h 77% 0in /  0.0mm 156 W/m2
16:28 58.5 °F /  14.7 °C 51.3 °F /  10.7 °C 30.2in /  1022.4hPa SSE 0.9mph /  1.4km/h 3mph /  4.8km/h 77% 0in /  0.0mm 148 W/m2
16:33 58.5 °F /  14.7 °C 50.9 °F /  10.5 °C 30.2in /  1022.4hPa Calm   1mph /  1.6km/h 76% 0in /  0.0mm 146 W/m2
16:38 58.6 °F /  14.8 °C 51.4 °F /  10.8 °C 30.2in /  1022.4hPa Calm   2mph /  3.2km/h 77% 0in /  0.0mm 142 W/m2
16:43 58.6 °F /  14.8 °C 51.4 °F /  10.8 °C 30.2in /  1022.4hPa Calm   4mph /  6.4km/h 77% 0in /  0.0mm 146 W/m2
16:48 58.6 °F /  14.8 °C 51.1 °F /  10.6 °C 30.2in /  1022.0hPa East 0.9mph /  1.4km/h 4mph /  6.4km/h 76% 0in /  0.0mm 139 W/m2
16:53 58.5 °F /  14.7 °C 50.9 °F /  10.5 °C 30.2in /  1022.4hPa Calm   3mph /  4.8km/h 76% 0in /  0.0mm 104 W/m2
16:58 58.5 °F /  14.7 °C 51.3 °F /  10.7 °C 30.2in /  1022.7hPa Calm   2mph /  3.2km/h 77% 0in /  0.0mm 79 W/m2
17:03 58.3 °F /  14.6 °C 51.1 °F /  10.6 °C 30.2in /  1022.7hPa Calm   2mph /  3.2km/h 77% 0in /  0.0mm 69 W/m2
17:08 58.1 °F /  14.5 °C 51.3 °F /  10.7 °C 30.2in /  1022.7hPa Calm   1mph /  1.6km/h 78% 0in /  0.0mm 65 W/m2
17:13 57.7 °F /  14.3 °C 51.3 °F /  10.7 °C 30.2in /  1023.0hPa Calm     79% 0in /  0.0mm 63 W/m2
17:18 57.6 °F /  14.2 °C 51.4 °F /  10.8 °C 30.2in /  1023.0hPa Calm     80% 0in /  0.0mm 56 W/m2
17:23 57.2 °F /  14 °C 51.4 °F /  10.8 °C 30.2in /  1022.7hPa Calm     81% 0in /  0.0mm 51 W/m2
17:28 56.8 °F /  13.8 °C 51.4 °F /  10.8 °C 30.2in /  1022.7hPa Calm     82% 0in /  0.0mm 49 W/m2
17:33 56.5 °F /  13.6 °C 51.4 °F /  10.8 °C 30.2in /  1022.7hPa Calm     83% 0in /  0.0mm 47 W/m2
17:38 56.1 °F /  13.4 °C 51.4 °F /  10.8 °C 30.2in /  1022.4hPa Calm     84% 0in /  0.0mm 44 W/m2
17:43 55.8 °F /  13.2 °C 51.1 °F /  10.6 °C 30.2in /  1022.4hPa Calm     84% 0in /  0.0mm 40 W/m2
17:48 55.6 °F /  13.1 °C 51.1 °F /  10.6 °C 30.2in /  1022.4hPa Calm     85% 0in /  0.0mm 39 W/m2
17:53 55.2 °F /  12.9 °C 51.1 °F /  10.6 °C 30.2in /  1022.4hPa Calm     86% 0in /  0.0mm 40 W/m2
17:58 55 °F /  12.8 °C 50.9 °F /  10.5 °C 30.2in /  1022.4hPa Calm     86% 0in /  0.0mm 37 W/m2
18:03 54.9 °F /  12.7 °C 51.1 °F /  10.6 °C 30.2in /  1022.7hPa Calm     87% 0in /  0.0mm 30 W/m2
18:08 54.7 °F /  12.6 °C 50.9 °F /  10.5 °C 30.2in /  1022.7hPa Calm   2mph /  3.2km/h 87% 0in /  0.0mm 26 W/m2
18:13 54.3 °F /  12.4 °C 50.5 °F /  10.3 °C 30.2in /  1023.0hPa NE 0.9mph /  1.4km/h 1mph /  1.6km/h 87% 0in /  0.0mm 21 W/m2
18:18 54.1 °F /  12.3 °C 50.7 °F /  10.4 °C 30.2in /  1022.7hPa Calm   2mph /  3.2km/h 88% 0in /  0.0mm 14 W/m2
18:23 54 °F /  12.2 °C 50.5 °F /  10.3 °C 30.2in /  1022.4hPa Calm     88% 0in /  0.0mm 11 W/m2
18:28 53.8 °F /  12.1 °C 50.4 °F /  10.2 °C 30.2in /  1022.4hPa Calm     88% 0in /  0.0mm 5 W/m2
18:33 53.6 °F /  12 °C 50.2 °F /  10.1 °C 30.2in /  1022.4hPa Calm     88% 0in /  0.0mm 0 W/m2
18:38 53.4 °F /  11.9 °C 50.2 °F /  10.1 °C 30.2in /  1022.0hPa Calm     89% 0in /  0.0mm 0 W/m2
18:43 53.2 °F /  11.8 °C 50 °F /  10 °C 30.2in /  1022.0hPa Calm   3mph /  4.8km/h 89% 0in /  0.0mm 0 W/m2
18:48 53.2 °F /  11.8 °C 50.4 °F /  10.2 °C 30.2in /  1022.0hPa Calm   2mph /  3.2km/h 90% 0in /  0.0mm 0 W/m2
18:53 53.1 °F /  11.7 °C 50.2 °F /  10.1 °C 30.2in /  1022.0hPa NE 2.9mph /  4.7km/h 3mph /  4.8km/h 90% 0in /  0.0mm 0 W/m2
18:58 53.1 °F /  11.7 °C 50.2 °F /  10.1 °C 30.2in /  1022.0hPa Calm   1mph /  1.6km/h 90% 0in /  0.0mm 0 W/m2
19:03 53.1 °F /  11.7 °C 50.2 °F /  10.1 °C 30.2in /  1022.0hPa Calm     90% 0in /  0.0mm 0 W/m2
19:08 52.9 °F /  11.6 °C 50 °F /  10 °C 30.2in /  1022.0hPa Calm   1mph /  1.6km/h 90% 0in /  0.0mm 0 W/m2
19:13 52.9 °F /  11.6 °C 50 °F /  10 °C 30.2in /  1022.4hPa Calm   1mph /  1.6km/h 90% 0in /  0.0mm 0 W/m2
19:18 52.9 °F /  11.6 °C 50 °F /  10 °C 30.2in /  1022.4hPa SE 0.9mph /  1.4km/h 1mph /  1.6km/h 90% 0in /  0.0mm 0 W/m2
19:23 52.5 °F /  11.4 °C 49.6 °F /  9.8 °C 30.2in /  1022.4hPa Calm     90% 0in /  0.0mm 0 W/m2
19:28 52.3 °F /  11.3 °C 49.5 °F /  9.7 °C 30.2in /  1022.7hPa Calm     90% 0in /  0.0mm 0 W/m2
19:33 52.2 °F /  11.2 °C 49.3 °F /  9.6 °C 30.2in /  1022.7hPa Calm   1mph /  1.6km/h 90% 0in /  0.0mm 0 W/m2
19:38 52 °F /  11.1 °C 49.1 °F /  9.5 °C 30.2in /  1022.7hPa Calm     90% 0in /  0.0mm 0 W/m2
19:43 51.6 °F /  10.9 °C 48.7 °F /  9.3 °C 30.2in /  1023.0hPa Calm     90% 0in /  0.0mm 0 W/m2
19:48 51.4 °F /  10.8 °C 48.9 °F /  9.4 °C 30.2in /  1023.0hPa Calm     91% 0in /  0.0mm 0 W/m2
19:53 51.3 °F /  10.7 °C 48.7 °F /  9.3 °C 30.2in /  1023.0hPa Calm     91% 0in /  0.0mm 0 W/m2
19:58 51.3 °F /  10.7 °C 48.7 °F /  9.3 °C 30.2in /  1023.0hPa SE 0.9mph /  1.4km/h 1mph /  1.6km/h 91% 0in /  0.0mm 0 W/m2
20:03 51.1 °F /  10.6 °C 48.9 °F /  9.4 °C 30.2in /  1023.0hPa Calm   1mph /  1.6km/h 92% 0in /  0.0mm 0 W/m2
20:08 50.7 °F /  10.4 °C 48.6 °F /  9.2 °C 30.2in /  1023.0hPa Calm     92% 0in /  0.0mm 0 W/m2
20:13 50.7 °F /  10.4 °C 48.6 °F /  9.2 °C 30.2in /  1023.4hPa Calm     92% 0in /  0.0mm 0 W/m2
20:18 50.5 °F /  10.3 °C 48.4 °F /  9.1 °C 30.2in /  1023.0hPa Calm     92% 0in /  0.0mm 0 W/m2
20:23 50.4 °F /  10.2 °C 48.4 °F /  9.1 °C 30.2in /  1023.0hPa Calm   1mph /  1.6km/h 93% 0in /  0.0mm 0 W/m2
20:28 50.4 °F /  10.2 °C 48.4 °F /  9.1 °C 30.2in /  1023.0hPa Calm     93% 0in /  0.0mm 0 W/m2
20:33 50.2 °F /  10.1 °C 48.2 °F /  9 °C 30.2in /  1023.0hPa Calm   1mph /  1.6km/h 93% 0in /  0.0mm 0 W/m2
20:38 50.2 °F /  10.1 °C 48.2 °F /  9 °C 30.2in /  1023.0hPa Calm     93% 0in /  0.0mm 0 W/m2
20:43 50.2 °F /  10.1 °C 48.6 °F /  9.2 °C 30.2in /  1023.0hPa Calm     94% 0in /  0.0mm 0 W/m2
20:48 50.2 °F /  10.1 °C 48.6 °F /  9.2 °C 30.2in /  1023.0hPa Calm     94% 0in /  0.0mm 0 W/m2
20:53 49.8 °F /  9.9 °C 48.2 °F /  9 °C 30.2in /  1023.0hPa Calm     94% 0in /  0.0mm 0 W/m2
20:58 49.8 °F /  9.9 °C 48.2 °F /  9 °C 30.2in /  1023.0hPa Calm     94% 0in /  0.0mm 0 W/m2
21:03 49.6 °F /  9.8 °C 48 °F /  8.9 °C 30.2in /  1022.7hPa Calm     94% 0in /  0.0mm 0 W/m2
21:08 49.6 °F /  9.8 °C 48 °F /  8.9 °C 30.2in /  1022.7hPa Calm     94% 0in /  0.0mm 0 W/m2
21:13 49.6 °F /  9.8 °C 48 °F /  8.9 °C 30.2in /  1022.7hPa Calm     94% 0in /  0.0mm 0 W/m2
21:18 49.5 °F /  9.7 °C 47.8 °F /  8.8 °C 30.2in /  1023.0hPa Calm     94% 0in /  0.0mm 0 W/m2
21:23 49.5 °F /  9.7 °C 47.8 °F /  8.8 °C 30.2in /  1023.0hPa Calm     94% 0in /  0.0mm 0 W/m2
21:28 49.3 °F /  9.6 °C 47.7 °F /  8.7 °C 30.2in /  1023.0hPa Calm     94% 0in /  0.0mm 0 W/m2
21:33 49.3 °F /  9.6 °C 47.7 °F /  8.7 °C 30.2in /  1023.0hPa Calm     94% 0in /  0.0mm 0 W/m2
21:38 48.9 °F /  9.4 °C 47.3 °F /  8.5 °C 30.2in /  1023.0hPa Calm     94% 0in /  0.0mm 0 W/m2
21:43 48.9 °F /  9.4 °C 47.3 °F /  8.5 °C 30.2in /  1022.7hPa Calm     94% 0in /  0.0mm 0 W/m2
21:48 48.9 °F /  9.4 °C 47.3 °F /  8.5 °C 30.2in /  1023.0hPa Calm     94% 0in /  0.0mm 0 W/m2
21:53 48.7 °F /  9.3 °C 47.3 °F /  8.5 °C 30.2in /  1023.0hPa Calm     95% 0in /  0.0mm 0 W/m2
21:58 48.7 °F /  9.3 °C 47.3 °F /  8.5 °C 30.2in /  1023.0hPa Calm     95% 0in /  0.0mm 0 W/m2
22:03 48.6 °F /  9.2 °C 47.1 °F /  8.4 °C 30.2in /  1023.0hPa Calm     95% 0in /  0.0mm 0 W/m2
22:08 48.6 °F /  9.2 °C 46.9 °F /  8.3 °C 30.2in /  1023.0hPa Calm     94% 0in /  0.0mm 0 W/m2
22:13 48.4 °F /  9.1 °C 46.8 °F /  8.2 °C 30.2in /  1023.0hPa Calm     94% 0in /  0.0mm 0 W/m2
22:18 48.2 °F /  9 °C 46.8 °F /  8.2 °C 30.2in /  1023.0hPa Calm     95% 0in /  0.0mm 0 W/m2
22:23 48 °F /  8.9 °C 46.6 °F /  8.1 °C 30.2in /  1023.0hPa Calm     95% 0in /  0.0mm 0 W/m2
22:28 48 °F /  8.9 °C 46.6 °F /  8.1 °C 30.2in /  1023.0hPa Calm     95% 0in /  0.0mm 0 W/m2
22:33 48 °F /  8.9 °C 46.6 °F /  8.1 °C 30.2in /  1023.0hPa Calm     95% 0in /  0.0mm 0 W/m2
22:38 48 °F /  8.9 °C 46.6 °F /  8.1 °C 30.2in /  1023.0hPa Calm     95% 0in /  0.0mm 0 W/m2
22:44 48 °F /  8.9 °C 46.6 °F /  8.1 °C 30.2in /  1023.0hPa Calm     95% 0in /  0.0mm 0 W/m2
22:49 47.8 °F /  8.8 °C 46.4 °F /  8 °C 30.2in /  1023.0hPa Calm     95% 0in /  0.0mm 0 W/m2
22:54 47.8 °F /  8.8 °C 46.4 °F /  8 °C 30.2in /  1023.0hPa Calm     95% 0in /  0.0mm 0 W/m2
22:59 47.8 °F /  8.8 °C 46.4 °F /  8 °C 30.2in /  1023.0hPa Calm     95% 0in /  0.0mm 0 W/m2
23:04 47.7 °F /  8.7 °C 46.2 °F /  7.9 °C 30.2in /  1023.0hPa Calm     95% 0in /  0.0mm 0 W/m2
23:09 47.7 °F /  8.7 °C 46.2 °F /  7.9 °C 30.2in /  1023.0hPa Calm     95% 0in /  0.0mm 0 W/m2
23:14 47.5 °F /  8.6 °C 46 °F /  7.8 °C 30.2in /  1023.0hPa Calm     95% 0in /  0.0mm 0 W/m2
23:19 47.5 °F /  8.6 °C 46 °F /  7.8 °C 30.2in /  1023.0hPa Calm     95% 0in /  0.0mm 0 W/m2
23:24 47.3 °F /  8.5 °C 45.9 °F /  7.7 °C 30.2in /  1023.0hPa Calm     95% 0in /  0.0mm 0 W/m2
23:29 47.3 °F /  8.5 °C 45.9 °F /  7.7 °C 30.2in /  1023.0hPa Calm     95% 0in /  0.0mm 0 W/m2
23:34 47.1 °F /  8.4 °C 45.7 °F /  7.6 °C 30.2in /  1023.0hPa Calm     95% 0in /  0.0mm 0 W/m2
23:39 46.9 °F /  8.3 °C 45.5 °F /  7.5 °C 30.2in /  1023.0hPa Calm     95% 0in /  0.0mm 0 W/m2
23:44 46.9 °F /  8.3 °C 45.5 °F /  7.5 °C 30.2in /  1023.0hPa Calm     95% 0in /  0.0mm 0 W/m2
23:49 46.8 °F /  8.2 °C 45.3 °F /  7.4 °C 30.2in /  1023.0hPa Calm     95% 0in /  0.0mm 0 W/m2
23:54 46.8 °F /  8.2 °C 45.3 °F /  7.4 °C 30.2in /  1023.0hPa Calm     95% 0in /  0.0mm 0 W/m2
23:59 46.6 °F /  8.1 °C 45.1 °F /  7.3 °C 30.2in /  1023.0hPa Calm     95% 0in /  0.0mm 0 W/m2
Juneau County Weather
Compliments of Weather Underground - 4 mb